createdAt,value
2023-02-11T00:01:37.729Z,102119.41
2023-02-11T00:04:08.802Z,102121.09
2023-02-11T00:06:39.342Z,102116.75
2023-02-11T00:09:07.680Z,102116.84
2023-02-11T00:11:35.512Z,102109.97
2023-02-11T00:14:07.968Z,102105.81
2023-02-11T00:16:35.850Z,102113.88
2023-02-11T00:19:05.591Z,102098.34
2023-02-11T00:21:36.887Z,102105.03
2023-02-11T00:24:04.962Z,102097.09
2023-02-11T00:26:35.519Z,102091.91
2023-02-11T00:29:03.729Z,102100.91
2023-02-11T00:31:31.531Z,102092.09
2023-02-11T00:34:01.595Z,102093.91
2023-02-11T00:36:32.389Z,102106.28
2023-02-11T00:39:00.534Z,102091.34
2023-02-11T00:41:28.676Z,102087.75
2023-02-11T00:43:56.320Z,102081.50
2023-02-11T00:46:24.807Z,102089.88
2023-02-11T00:48:55.219Z,102092.09
2023-02-11T00:51:22.966Z,102088.50
2023-02-11T00:53:50.576Z,102096.25
2023-02-11T00:56:21.098Z,102089.94
2023-02-11T00:58:48.760Z,102084.63
2023-02-11T01:01:16.430Z,102074.69
2023-02-11T01:03:45.434Z,102074.47
2023-02-11T01:06:13.365Z,102063.03
2023-02-11T01:08:41.586Z,102064.63
2023-02-11T01:11:15.112Z,102058.16
2023-02-11T01:13:44.778Z,102046.72
2023-02-11T01:16:13.692Z,102046.72
2023-02-11T01:18:42.234Z,102038.25
2023-02-11T01:21:09.820Z,102037.03
2023-02-11T01:23:39.794Z,102040.19
2023-02-11T01:26:07.634Z,102036.28
2023-02-11T01:28:37.752Z,102030.00
2023-02-11T01:31:05.952Z,102019.97
2023-02-11T01:33:33.596Z,102021.72
2023-02-11T01:36:05.962Z,102013.22
2023-02-11T01:38:34.865Z,102019.59
2023-02-11T01:41:11.829Z,102018.53
2023-02-11T01:43:46.187Z,102021.19
2023-02-11T01:46:34.233Z,102014.00
2023-02-11T01:49:16.163Z,102011.97
2023-02-11T01:52:13.162Z,102012.97
2023-02-11T01:55:05.334Z,102010.31
2023-02-11T01:57:36.446Z,102014.28
2023-02-11T02:00:14.902Z,102011.56
2023-02-11T02:03:06.004Z,102010.25
2023-02-11T02:05:36.796Z,102009.41
2023-02-11T02:08:15.215Z,102006.16
2023-02-11T02:10:46.347Z,102009.25
2023-02-11T02:13:15.495Z,102019.34
2023-02-11T02:15:53.023Z,102013.19
2023-02-11T02:18:27.937Z,102011.41
2023-02-11T02:21:01.917Z,102017.28
2023-02-11T02:23:42.530Z,102006.03
2023-02-11T02:26:23.096Z,102011.06
2023-02-11T02:29:21.669Z,102008.12
2023-02-11T02:32:14.847Z,102014.59
2023-02-11T02:35:13.544Z,102012.53
2023-02-11T02:37:49.909Z,102009.56
2023-02-11T02:40:24.940Z,102005.09
2023-02-11T02:42:58.501Z,101999.50
2023-02-11T02:45:33.752Z,102002.16
2023-02-11T02:48:01.434Z,101999.31
2023-02-11T02:50:35.025Z,102001.97
2023-02-11T02:53:24.070Z,102005.16
2023-02-11T02:55:57.712Z,102003.78
2023-02-11T02:59:03.746Z,101993.75
2023-02-11T03:01:34.353Z,101995.25
2023-02-11T03:04:04.959Z,101996.31
2023-02-11T03:06:50.038Z,101989.72
2023-02-11T03:09:26.985Z,101992.06
2023-02-11T03:11:55.483Z,101989.97
2023-02-11T03:14:28.290Z,101988.28
2023-02-11T03:16:59.407Z,101986.75
2023-02-11T03:19:42.307Z,101983.59
2023-02-11T03:22:27.717Z,101982.97
2023-02-11T03:24:59.927Z,101980.84
2023-02-11T03:27:50.167Z,101978.41
2023-02-11T03:30:22.763Z,101979.47
2023-02-11T03:32:58.021Z,101972.78
2023-02-11T03:35:29.764Z,101976.59
2023-02-11T03:38:06.769Z,101968.13
2023-02-11T03:40:39.274Z,101976.16
2023-02-11T03:43:15.505Z,101968.31
2023-02-11T03:45:43.301Z,101960.47
2023-02-11T03:48:34.158Z,101950.09
2023-02-11T03:51:06.270Z,101945.87
2023-02-11T03:53:37.863Z,101940.97
2023-02-11T03:56:11.281Z,101936.72
2023-02-11T03:58:38.899Z,101938.87
2023-02-11T04:01:09.904Z,101928.28
2023-02-11T04:03:37.589Z,101923.09
2023-02-11T04:06:07.734Z,101925.41
2023-02-11T04:08:35.564Z,101904.09
2023-02-11T04:11:03.233Z,101921.59
2023-02-11T04:13:31.321Z,101917.34
2023-02-11T04:15:59.130Z,101906.00
2023-02-11T04:18:26.935Z,101901.69
2023-02-11T04:20:54.771Z,101901.88
2023-02-11T04:23:22.492Z,101903.88
2023-02-11T04:25:51.264Z,101899.41
2023-02-11T04:28:21.524Z,101894.13
2023-02-11T04:30:54.127Z,101896.97
2023-02-11T04:33:22.335Z,101903.66
2023-02-11T04:35:50.250Z,101896.88
2023-02-11T04:38:18.586Z,101896.12
2023-02-11T04:40:46.249Z,101903.44
2023-02-11T04:43:13.921Z,101900.87
2023-02-11T04:45:41.723Z,101901.09
2023-02-11T04:48:09.637Z,101901.37
2023-02-11T04:50:37.636Z,101907.72
2023-02-11T04:53:05.238Z,101898.28
2023-02-11T04:55:33.351Z,101893.66
2023-02-11T04:58:01.206Z,101904.13
2023-02-11T05:00:29.881Z,101901.47
2023-02-11T05:02:59.911Z,101899.56
2023-02-11T05:05:27.684Z,101898.84
2023-02-11T05:07:55.340Z,101906.97
2023-02-11T05:10:22.990Z,101903.69
2023-02-11T05:12:50.943Z,101909.09
2023-02-11T05:15:18.596Z,101906.44
2023-02-11T05:17:46.442Z,101909.28
2023-02-11T05:20:14.046Z,101912.13
2023-02-11T05:22:43.953Z,101903.66
2023-02-11T05:25:11.617Z,101900.06
2023-02-11T05:27:39.279Z,101904.41
2023-02-11T05:30:08.101Z,101903.75
2023-02-11T05:32:35.749Z,101904.50
2023-02-11T05:35:03.419Z,101895.91
2023-02-11T05:37:33.290Z,101894.78
2023-02-11T05:40:01.013Z,101886.63
2023-02-11T05:42:28.959Z,101880.59
2023-02-11T05:44:56.563Z,101893.81
2023-02-11T05:47:24.241Z,101889.50
2023-02-11T05:49:54.573Z,101881.72
2023-02-11T05:52:23.042Z,101883.88
2023-02-11T05:54:50.896Z,101882.84
2023-02-11T05:57:19.279Z,101884.53
2023-02-11T05:59:46.868Z,101887.19
2023-02-11T06:02:14.966Z,101883.47
2023-02-11T06:04:45.421Z,101892.78
2023-02-11T06:07:13.077Z,101897.87
2023-02-11T06:09:47.214Z,101900.31
2023-02-11T06:12:17.100Z,101899.94
2023-02-11T06:14:44.731Z,101893.28
2023-02-11T06:17:15.792Z,101896.97
2023-02-11T06:19:43.502Z,101890.56
2023-02-11T06:22:11.137Z,101897.22
2023-02-11T06:24:59.791Z,101893.94
2023-02-11T06:27:31.265Z,101892.06
2023-02-11T06:29:58.827Z,101883.56
2023-02-11T06:32:42.931Z,101878.34
2023-02-11T06:35:12.328Z,101873.06
2023-02-11T06:37:42.276Z,101876.53
2023-02-11T06:40:10.924Z,101878.94
2023-02-11T06:42:39.560Z,101876.88
2023-02-11T06:45:09.552Z,101880.44
2023-02-11T06:47:37.866Z,101875.84
2023-02-11T06:50:05.879Z,101869.50
2023-02-11T06:52:38.710Z,101866.19
2023-02-11T06:55:10.255Z,101862.41
2023-02-11T06:57:40.308Z,101868.72
2023-02-11T07:00:08.543Z,101863.81
2023-02-11T07:02:37.209Z,101868.50
2023-02-11T07:05:07.865Z,101869.88
2023-02-11T07:07:37.975Z,101862.97
2023-02-11T07:10:08.455Z,101869.03
2023-02-11T07:12:38.792Z,101860.78
2023-02-11T07:15:20.020Z,101859.81
2023-02-11T07:17:47.693Z,101859.31
2023-02-11T07:20:17.883Z,101867.25
2023-02-11T07:22:48.436Z,101854.41
2023-02-11T07:25:16.163Z,101865.44
2023-02-11T07:27:43.951Z,101859.91
2023-02-11T07:30:12.433Z,101863.34
2023-02-11T07:32:42.540Z,101863.25
2023-02-11T07:35:12.442Z,101865.00
2023-02-11T07:37:42.588Z,101856.25
2023-02-11T07:40:11.158Z,101850.19
2023-02-11T07:42:40.499Z,101850.97
2023-02-11T07:45:08.909Z,101851.25
2023-02-11T07:47:37.188Z,101849.22
2023-02-11T07:50:05.022Z,101847.91
2023-02-11T07:52:32.689Z,101839.81
2023-02-11T07:55:04.425Z,101836.87
2023-02-11T07:57:34.834Z,101829.16
2023-02-11T08:00:02.785Z,101829.78
2023-02-11T08:02:30.410Z,101835.91
2023-02-11T08:05:00.237Z,101831.22
2023-02-11T08:07:30.363Z,101829.38
2023-02-11T08:10:01.514Z,101837.03
2023-02-11T08:12:29.387Z,101827.84
2023-02-11T08:14:57.404Z,101837.37
2023-02-11T08:17:25.081Z,101828.25
2023-02-11T08:19:52.834Z,101827.47
2023-02-11T08:22:20.460Z,101835.16
2023-02-11T08:24:52.301Z,101840.41
2023-02-11T08:27:20.191Z,101835.97
2023-02-11T08:29:48.860Z,101831.22
2023-02-11T08:32:16.603Z,101830.22
2023-02-11T08:34:51.668Z,101826.78
2023-02-11T08:37:22.868Z,101835.81
2023-02-11T08:39:51.041Z,101827.50
2023-02-11T08:42:18.681Z,101834.44
2023-02-11T08:44:46.899Z,101834.28
2023-02-11T08:47:14.523Z,101837.22
2023-02-11T08:49:42.486Z,101832.78
2023-02-11T08:52:10.300Z,101828.41
2023-02-11T08:54:38.700Z,101823.28
2023-02-11T08:57:09.185Z,101827.41
2023-02-11T08:59:37.171Z,101832.47
2023-02-11T09:02:05.869Z,101834.97
2023-02-11T09:04:37.232Z,101835.22
2023-02-11T09:07:05.198Z,101836.53
2023-02-11T09:09:34.980Z,101822.28
2023-02-11T09:12:02.579Z,101821.38
2023-02-11T09:14:30.786Z,101822.44
2023-02-11T09:17:01.075Z,101810.72
2023-02-11T09:19:31.147Z,101808.56
2023-02-11T09:22:01.196Z,101811.75
2023-02-11T09:24:28.947Z,101814.62
2023-02-11T09:26:58.896Z,101805.22
2023-02-11T09:29:28.980Z,101800.97
2023-02-11T09:31:56.723Z,101796.09
2023-02-11T09:34:24.789Z,101787.19
2023-02-11T09:36:57.060Z,101804.50
2023-02-11T09:39:26.716Z,101796.34
2023-02-11T09:42:09.882Z,101798.56
2023-02-11T09:44:39.580Z,101793.69
2023-02-11T09:47:20.745Z,101794.56
2023-02-11T09:49:52.341Z,101781.59
2023-02-11T09:52:48.100Z,101786.81
2023-02-11T09:55:39.498Z,101784.16
2023-02-11T09:58:28.987Z,101782.91
2023-02-11T10:01:28.925Z,101788.06
2023-02-11T10:04:14.614Z,101777.16
2023-02-11T10:06:53.476Z,101779.19
2023-02-11T10:09:33.344Z,101785.81
2023-02-11T10:12:28.938Z,101784.97
2023-02-11T10:15:09.301Z,101772.41
2023-02-11T10:17:47.469Z,101767.34
2023-02-11T10:20:34.011Z,101775.00
2023-02-11T10:23:09.976Z,101765.97
2023-02-11T10:25:41.880Z,101767.00
2023-02-11T10:28:22.538Z,101765.13
2023-02-11T10:30:56.861Z,101759.25
2023-02-11T10:33:30.906Z,101746.03
2023-02-11T10:35:58.702Z,101748.44
2023-02-11T10:38:26.737Z,101741.78
2023-02-11T10:40:57.106Z,101745.66
2023-02-11T10:43:33.327Z,101746.03
2023-02-11T10:46:03.992Z,101729.78
2023-02-11T10:48:51.667Z,101719.91
2023-02-11T10:51:31.268Z,101725.59
2023-02-11T10:54:21.354Z,101716.25
2023-02-11T10:56:52.177Z,101718.59
2023-02-11T10:59:40.128Z,101707.66
2023-02-11T11:02:24.876Z,101710.31
2023-02-11T11:04:58.149Z,101718.94
2023-02-11T11:07:34.277Z,101698.56
2023-02-11T11:10:27.756Z,101706.62
2023-02-11T11:12:57.732Z,101697.00
2023-02-11T11:15:31.514Z,101689.25
2023-02-11T11:18:23.014Z,101690.13
2023-02-11T11:21:22.856Z,101685.44
2023-02-11T11:23:56.606Z,101680.19
2023-02-11T11:26:26.921Z,101678.59
2023-02-11T11:29:01.825Z,101666.00
2023-02-11T11:31:37.630Z,101664.78
2023-02-11T11:34:23.664Z,101658.97
2023-02-11T11:36:51.825Z,101666.09
2023-02-11T11:39:28.945Z,101658.56
2023-02-11T11:42:00.204Z,101633.03
2023-02-11T11:44:34.285Z,101646.06
2023-02-11T11:47:16.891Z,101649.84
2023-02-11T11:49:50.979Z,101628.16
2023-02-11T11:52:56.389Z,101630.22
2023-02-11T11:55:32.806Z,101626.19
2023-02-11T11:58:00.515Z,101629.28
2023-02-11T12:00:57.281Z,101621.09
2023-02-11T12:03:51.488Z,101616.37
2023-02-11T12:06:21.886Z,101623.06
2023-02-11T12:09:18.672Z,101623.50
2023-02-11T12:11:46.264Z,101595.94
2023-02-11T12:14:36.714Z,101587.09
2023-02-11T12:17:32.300Z,101586.31
2023-02-11T12:20:18.922Z,101572.22
2023-02-11T12:23:24.462Z,101578.66
2023-02-11T12:26:09.117Z,101552.69
2023-02-11T12:28:43.220Z,101545.91
2023-02-11T12:31:44.265Z,101549.28
2023-02-11T12:34:49.688Z,101537.06
2023-02-11T12:37:42.538Z,101540.34
2023-02-11T12:40:38.993Z,101541.50
2023-02-11T12:43:24.878Z,101532.91
2023-02-11T12:46:02.005Z,101531.69
2023-02-11T12:48:50.685Z,101536.41
2023-02-11T12:51:32.057Z,101538.25
2023-02-11T12:54:18.724Z,101523.25
2023-02-11T12:57:12.374Z,101529.13
2023-02-11T13:00:19.551Z,101514.22
2023-02-11T13:03:05.216Z,101513.94
2023-02-11T13:05:44.102Z,101502.84
2023-02-11T13:08:20.472Z,101510.75
2023-02-11T13:11:03.458Z,101517.38
2023-02-11T13:13:47.309Z,101522.72
2023-02-11T13:16:34.286Z,101515.41
2023-02-11T13:19:19.646Z,101505.22
2023-02-11T13:22:06.253Z,101510.41
2023-02-11T13:24:49.410Z,101499.94
2023-02-11T13:27:34.745Z,101492.00
2023-02-11T13:30:31.524Z,101487.78
2023-02-11T13:33:00.697Z,101479.66
2023-02-11T13:35:46.320Z,101476.91
2023-02-11T13:38:23.926Z,101469.88
2023-02-11T13:41:18.259Z,101471.06
2023-02-11T13:43:57.789Z,101472.59
2023-02-11T13:46:31.344Z,101474.75
2023-02-11T13:48:59.503Z,101474.78
2023-02-11T13:51:40.638Z,101472.84
2023-02-11T13:54:22.376Z,101482.19
2023-02-11T13:57:22.040Z,101470.84
2023-02-11T13:59:54.107Z,101480.44
2023-02-11T14:02:45.495Z,101476.84
2023-02-11T14:05:41.657Z,101474.94
2023-02-11T14:08:38.870Z,101479.44
2023-02-11T14:11:12.749Z,101482.53
2023-02-11T14:14:01.743Z,101475.47
2023-02-11T14:16:38.286Z,101459.63
2023-02-11T14:19:07.242Z,101452.44
2023-02-11T14:21:40.362Z,101454.34
2023-02-11T14:24:14.479Z,101450.87
2023-02-11T14:26:54.121Z,101468.97
2023-02-11T14:29:35.760Z,101486.88
2023-02-11T14:32:28.325Z,101480.06
2023-02-11T14:35:25.364Z,101493.84
2023-02-11T14:37:55.754Z,101487.56
2023-02-11T14:40:28.832Z,101483.88
2023-02-11T14:43:08.833Z,101492.00
2023-02-11T14:45:38.391Z,101489.88
2023-02-11T14:48:15.721Z,101489.88
2023-02-11T14:50:49.537Z,101488.78
2023-02-11T14:53:21.732Z,101488.59
2023-02-11T14:55:56.007Z,101486.91
2023-02-11T14:58:36.400Z,101469.50
2023-02-11T15:01:24.043Z,101476.69
2023-02-11T15:03:55.963Z,101451.69
2023-02-11T15:06:33.319Z,101466.41
2023-02-11T15:09:26.889Z,101461.13
2023-02-11T15:11:57.057Z,101454.88
2023-02-11T15:14:26.187Z,101451.94
2023-02-11T15:16:57.343Z,101450.31
2023-02-11T15:19:34.118Z,101452.81
2023-02-11T15:22:07.819Z,101443.19
2023-02-11T15:24:39.642Z,101437.72
2023-02-11T15:27:12.837Z,101431.56
2023-02-11T15:29:49.360Z,101438.44
2023-02-11T15:32:17.218Z,101441.78
2023-02-11T15:34:49.971Z,101434.53
2023-02-11T15:37:28.010Z,101434.44
2023-02-11T15:39:56.512Z,101432.47
2023-02-11T15:42:27.982Z,101425.69
2023-02-11T15:45:21.129Z,101421.97
2023-02-11T15:47:58.688Z,101412.94
2023-02-11T15:50:37.179Z,101416.75
2023-02-11T15:53:51.551Z,101417.38
2023-02-11T15:56:25.963Z,101407.63
2023-02-11T15:59:03.987Z,101419.00
2023-02-11T16:01:38.269Z,101419.44
2023-02-11T16:04:14.676Z,101409.09
2023-02-11T16:06:47.532Z,101411.88
2023-02-11T16:09:15.205Z,101410.44
2023-02-11T16:11:53.911Z,101410.37
2023-02-11T16:14:40.186Z,101405.28
2023-02-11T16:17:23.177Z,101404.31
2023-02-11T16:19:53.936Z,101401.31
2023-02-11T16:22:27.718Z,101397.84
2023-02-11T16:25:00.120Z,101395.34
2023-02-11T16:27:38.499Z,101387.56
2023-02-11T16:30:07.213Z,101381.72
2023-02-11T16:32:35.860Z,101384.66
2023-02-11T16:35:12.074Z,101388.16
2023-02-11T16:37:39.722Z,101388.34
2023-02-11T16:40:08.139Z,101384.19
2023-02-11T16:42:35.770Z,101412.38
2023-02-11T16:45:03.851Z,101409.22
2023-02-11T16:47:32.335Z,101403.88
2023-02-11T16:50:00.489Z,101406.75
2023-02-11T16:52:31.374Z,101398.69
2023-02-11T16:55:02.354Z,101395.66
2023-02-11T16:57:31.201Z,101376.91
2023-02-11T16:59:59.310Z,101371.69
2023-02-11T17:02:33.186Z,101375.22
2023-02-11T17:05:03.593Z,101381.94
2023-02-11T17:07:31.725Z,101372.87
2023-02-11T17:10:07.850Z,101387.91
2023-02-11T17:12:35.509Z,101393.09
2023-02-11T17:15:04.040Z,101397.16
2023-02-11T17:17:44.081Z,101392.44
2023-02-11T17:20:14.704Z,101394.41
2023-02-11T17:22:42.649Z,101399.47
2023-02-11T17:25:10.608Z,101393.28
2023-02-11T17:27:40.723Z,101398.31
2023-02-11T17:30:16.435Z,101386.59
2023-02-11T17:32:48.534Z,101393.31
2023-02-11T17:35:16.240Z,101393.34
2023-02-11T17:37:44.201Z,101394.88
2023-02-11T17:40:12.877Z,101398.53
2023-02-11T17:42:40.724Z,101408.41
2023-02-11T17:45:09.644Z,101411.94
2023-02-11T17:47:38.386Z,101411.44
2023-02-11T17:50:09.966Z,101403.88
2023-02-11T17:52:37.933Z,101401.69
2023-02-11T17:55:07.977Z,101397.66
2023-02-11T17:57:36.730Z,101403.03
2023-02-11T18:00:08.502Z,101397.84
2023-02-11T18:02:36.289Z,101398.16
2023-02-11T18:05:06.652Z,101395.19
2023-02-11T18:07:34.496Z,101381.63
2023-02-11T18:10:02.385Z,101374.41
2023-02-11T18:12:31.483Z,101362.50
2023-02-11T18:15:01.329Z,101359.97
2023-02-11T18:17:29.064Z,101361.16
2023-02-11T18:19:58.125Z,101351.22
2023-02-11T18:22:26.189Z,101361.78
2023-02-11T18:24:57.189Z,101365.44
2023-02-11T18:27:24.885Z,101358.91
2023-02-11T18:29:52.640Z,101366.78
2023-02-11T18:32:20.262Z,101353.03
2023-02-11T18:34:48.014Z,101359.56
2023-02-11T18:37:18.272Z,101359.06
2023-02-11T18:39:48.512Z,101347.00
2023-02-11T18:42:16.188Z,101358.25
2023-02-11T18:44:46.284Z,101353.53
2023-02-11T18:47:14.051Z,101364.94
2023-02-11T18:49:42.934Z,101374.03
2023-02-11T18:52:12.853Z,101366.84
2023-02-11T18:54:41.542Z,101353.59
2023-02-11T18:57:09.318Z,101360.47
2023-02-11T18:59:41.524Z,101358.78
2023-02-11T19:02:10.558Z,101357.47
2023-02-11T19:04:38.611Z,101369.66
2023-02-11T19:07:06.828Z,101352.25
2023-02-11T19:09:34.649Z,101370.34
2023-02-11T19:12:04.718Z,101380.09
2023-02-11T19:14:34.871Z,101367.00
2023-02-11T19:17:08.273Z,101369.00
2023-02-11T19:19:38.417Z,101368.50
2023-02-11T19:22:10.659Z,101368.50
2023-02-11T19:24:41.478Z,101371.47
2023-02-11T19:27:09.131Z,101378.25
2023-02-11T19:29:37.336Z,101382.22
2023-02-11T19:32:07.060Z,101375.47
2023-02-11T19:34:41.061Z,101376.06
2023-02-11T19:37:12.475Z,101385.44
2023-02-11T19:39:43.053Z,101381.00
2023-02-11T19:42:14.012Z,101376.66
2023-02-11T19:44:44.282Z,101378.25
2023-02-11T19:47:13.446Z,101373.34
2023-02-11T19:49:43.705Z,101377.06
2023-02-11T19:52:11.417Z,101375.38
2023-02-11T19:54:39.592Z,101375.75
2023-02-11T19:57:07.294Z,101380.81
2023-02-11T19:59:34.973Z,101384.06
2023-02-11T20:02:06.243Z,101371.97
2023-02-11T20:04:33.992Z,101372.16
2023-02-11T20:07:04.114Z,101367.97
2023-02-11T20:09:34.427Z,101361.41
2023-02-11T20:12:03.807Z,101363.09
2023-02-11T20:14:31.648Z,101362.94
2023-02-11T20:16:59.476Z,101363.47
2023-02-11T20:19:30.856Z,101365.50
2023-02-11T20:22:00.803Z,101352.13
2023-02-11T20:24:29.154Z,101349.31
2023-02-11T20:26:56.820Z,101348.94
2023-02-11T20:29:33.526Z,101353.66
2023-02-11T20:32:01.367Z,101355.84
2023-02-11T20:34:29.732Z,101360.91
2023-02-11T20:36:57.767Z,101359.28
2023-02-11T20:39:26.874Z,101350.22
2023-02-11T20:41:58.188Z,101340.66
2023-02-11T20:44:26.156Z,101337.25
2023-02-11T20:46:54.921Z,101326.28
2023-02-11T20:49:25.617Z,101314.34
2023-02-11T20:51:53.902Z,101302.03
2023-02-11T20:54:22.252Z,101301.87
2023-02-11T20:56:53.771Z,101291.72
2023-02-11T20:59:22.167Z,101290.25
2023-02-11T21:01:55.409Z,101283.97
2023-02-11T21:04:30.544Z,101301.03
2023-02-11T21:07:02.868Z,101289.34
2023-02-11T21:09:34.067Z,101299.84
2023-02-11T21:12:04.267Z,101304.22
2023-02-11T21:14:34.302Z,101299.66
2023-02-11T21:17:02.435Z,101300.31
2023-02-11T21:19:30.394Z,101296.97
2023-02-11T21:22:00.664Z,101300.19
2023-02-11T21:24:32.600Z,101299.66
2023-02-11T21:27:05.675Z,101305.06
2023-02-11T21:29:52.715Z,101300.97
2023-02-11T21:32:21.790Z,101296.59
2023-02-11T21:34:51.496Z,101311.91
2023-02-11T21:37:19.190Z,101313.03
2023-02-11T21:39:47.065Z,101297.34
2023-02-11T21:42:14.684Z,101283.03
2023-02-11T21:44:42.323Z,101274.31
2023-02-11T21:47:09.972Z,101272.00
2023-02-11T21:49:37.969Z,101283.78
2023-02-11T21:52:06.033Z,101287.50
2023-02-11T21:54:36.705Z,101281.84
2023-02-11T21:57:09.866Z,101274.03
2023-02-11T21:59:40.414Z,101276.47
2023-02-11T22:02:10.816Z,101288.59
2023-02-11T22:04:38.969Z,101271.97
2023-02-11T22:07:07.113Z,101260.47
2023-02-11T22:09:34.743Z,101269.69
2023-02-11T22:12:04.101Z,101262.03
2023-02-11T22:14:32.454Z,101289.03
2023-02-11T22:17:00.264Z,101294.97
2023-02-11T22:19:28.089Z,101296.03
2023-02-11T22:21:55.762Z,101297.59
2023-02-11T22:24:23.397Z,101294.16
2023-02-11T22:26:51.090Z,101298.69
2023-02-11T22:29:22.007Z,101298.34
2023-02-11T22:31:49.778Z,101297.69
2023-02-11T22:34:17.842Z,101313.53
2023-02-11T22:36:46.975Z,101313.16
2023-02-11T22:39:17.542Z,101309.50
2023-02-11T22:41:47.089Z,101307.72
2023-02-11T22:44:20.037Z,101323.94
2023-02-11T22:46:47.687Z,101323.94
2023-02-11T22:49:18.209Z,101319.31
2023-02-11T22:51:46.274Z,101323.38
2023-02-11T22:54:16.621Z,101307.16
2023-02-11T22:56:44.960Z,101314.03
2023-02-11T22:59:14.998Z,101310.69
2023-02-11T23:01:43.839Z,101303.53
2023-02-11T23:04:14.686Z,101285.38
2023-02-11T23:06:44.346Z,101288.91
2023-02-11T23:09:14.396Z,101300.47
2023-02-11T23:11:44.675Z,101293.97
2023-02-11T23:14:12.685Z,101309.75
2023-02-11T23:16:40.850Z,101326.78
2023-02-11T23:19:09.905Z,101331.03
2023-02-11T23:21:39.743Z,101327.81
2023-02-11T23:24:16.648Z,101329.66
2023-02-11T23:26:45.044Z,101341.22
2023-02-11T23:29:13.888Z,101340.94
2023-02-11T23:31:45.215Z,101341.25
2023-02-11T23:34:17.075Z,101343.28
2023-02-11T23:36:45.144Z,101335.22
2023-02-11T23:39:17.152Z,101328.19
2023-02-11T23:41:47.966Z,101331.87
2023-02-11T23:44:15.592Z,101338.09
2023-02-11T23:46:43.312Z,101330.84
2023-02-11T23:49:11.178Z,101325.41
2023-02-11T23:51:41.159Z,101317.69
2023-02-11T23:54:08.881Z,101323.44
2023-02-11T23:56:37.723Z,101323.06
2023-02-11T23:59:06.050Z,101321.75
